• Join FlightAware (Why Join?)
  • Login
  • US Flag 
11:27PM EDT


 

Airport Tracker/Info


-or-


 

Live Flight TrackerFlight Track Log ✈ N406RC ✈ 02-May-2013 ✈ KSTC - KABR

Flight Track Log - Related Links

Times and Time Zones

All times are in EDT time to prevent confusion due to time zone crossing. See the N406RC flight status page for this flight to view local times or setup timezone preferences in your user account.

Time Position Orientation Groundspeed Altitude Reporting Facility
EDT Latitude Longitude Course Direction KTS MPH feet Rate Location/Type
05:54PM 45.5533 -94.2061 267° West 127 146 4,600  Level Minneapolis Center
05:55PM 45.5333 -94.4537 270° West  Level FlightAware Approximate
05:55PM 45.5519 -94.2633 268° West 121 139 6,000  Level Minneapolis Center
05:56PM 45.5334 -94.5193 270° West  Level FlightAware Approximate
05:57PM 45.5335 -94.5849 270° West  Level FlightAware Approximate
05:57PM 45.5525 -94.3106 271° West 121 139 7,100  Level Minneapolis Center
05:58PM 45.5335 -94.6506 270° West  Level FlightAware Approximate
05:58PM 45.5525 -94.3642 270° West 130 150 8,000  Level Minneapolis Center
05:59PM 45.5335 -94.7162 270° West  Level FlightAware Approximate
05:59PM 45.5528 -94.4256 270° West 145 167 8,000  Level Minneapolis Center
06:00PM 45.5525 -94.4972 270° West 170 196 8,000  Level Minneapolis Center
06:01PM 45.5506 -94.5706 268° West 182 209 8,000 -60 Level Minneapolis Center
06:02PM 45.5481 -94.6561 268° West 182 209 7,900 -60 Descending Minneapolis Center
06:03PM 45.5458 -94.7261 267° West 179 206 7,900  Level Minneapolis Center
06:04PM 45.5439 -94.7969 268° West 179 206 7,900  Level Minneapolis Center
06:05PM 45.5425 -94.8689 268° West 181 208 7,900  Level Minneapolis Center
06:06PM 45.5419 -94.9381 269° West 177 204 7,900  Level Minneapolis Center
06:07PM 45.5428 -95.0114 271° West 183 211 7,900  Level Minneapolis Center
06:08PM 45.5431 -95.0872 270° West 182 209 7,900  Level Minneapolis Center
06:09PM 45.5431 -95.1581 270° West 180 207 7,900  Level Minneapolis Center
06:10PM 45.5425 -95.2433 269° West 180 207 7,900  Level Minneapolis Center
06:11PM 45.5417 -95.3144 269° West 180 207 7,900  Level Minneapolis Center
06:12PM 45.5397 -95.3861 268° West 181 208 7,900  Level Minneapolis Center
06:13PM 45.5381 -95.4578 268° West 181 208 7,900  Level Minneapolis Center
06:14PM 45.5350 -95.5286 267° West 181 208 7,900  Level Minneapolis Center
06:15PM 45.5339 -95.6006 269° West 182 209 7,900  Level Minneapolis Center
06:16PM 45.5331 -95.6864 269° West 181 208 7,900  Level Minneapolis Center
06:17PM 45.5328 -95.7575 270° West 180 207 7,900  Level Minneapolis Center
06:18PM 45.5317 -95.8292 269° West 181 208 7,900  Level Minneapolis Center
06:19PM 45.5308 -95.8983 269° West 180 207 7,900  Level Minneapolis Center
06:20PM 45.5308 -95.9678 270° West 178 205 7,900  Level Minneapolis Center
06:21PM 45.5300 -96.0375 269° West 177 204 7,900  Level Minneapolis Center
06:22PM 45.5272 -96.1233 267° West 178 205 7,900  Level Minneapolis Center
06:23PM 45.5244 -96.1922 267° West 178 205 7,900  Level Minneapolis Center
06:24PM 45.5222 -96.2622 267° West 178 205 7,900  Level Minneapolis Center
06:25PM 45.5200 -96.3336 267° West 178 205 7,900  Level Minneapolis Center
06:26PM 45.5192 -96.4036 269° West 178 205 7,900  Level Minneapolis Center
06:27PM 45.5197 -96.4731 271° West 178 205 7,900  Level Minneapolis Center
06:28PM 45.5183 -96.5533 269° West 174 200 7,900  Level Minneapolis Center
06:30PM 45.5167 -96.6097 268° West 175 201 7,900  Level Minneapolis Center
06:31PM 45.5144 -96.6786 267° West 175 201 7,900  Level Minneapolis Center
06:32PM 45.5100 -96.7617 266° West 175 201 7,900  Level Minneapolis Center
06:33PM 45.5078 -96.8314 267° West 177 204 7,900  Level Minneapolis Center
06:34PM 45.5047 -96.9025 267° West 178 205 7,900  Level Minneapolis Center
06:35PM 45.5036 -96.9706 269° West 176 203 7,900  Level Minneapolis Center
06:36PM 45.4989 -97.0619 266° West 182 209 7,900  Level Minneapolis Center
06:37PM 45.4983 -97.1319 269° West 181 208 7,900  Level Minneapolis Center
06:38PM 45.4961 -97.2017 267° West 179 206 7,900  Level Minneapolis Center
06:39PM 45.4944 -97.2719 268° West 180 207 7,900  Level Minneapolis Center
06:40PM 45.4906 -97.3428 266° West 180 207 7,900  Level Minneapolis Center
06:41PM 45.4883 -97.4261 268° West 178 205 7,900  Level Minneapolis Center
06:42PM 45.4850 -97.4950 266° West 177 204 7,900  Level Minneapolis Center
06:43PM 45.4833 -97.5636 268° West 175 201 7,900  Level Minneapolis Center
06:44PM 45.4814 -97.6339 268° West 177 204 7,900  Level Minneapolis Center
06:45PM 45.4783 -97.7039 266° West 177 204 8,000  Climbing Minneapolis Center
06:46PM 45.4769 -97.7767 268° West 173 199 8,000 -60 Level Minneapolis Center
06:47PM 45.4739 -97.8472 266° West 175 201 7,900 -300 Descending Minneapolis Center
06:48PM 45.4711 -97.9200 267° West 179 206 7,400 -540 Descending Minneapolis Center
06:49PM 45.4683 -97.9931 267° West 183 211 6,800 -600 Descending Minneapolis Center
06:51PM 45.4481 -98.0788 267° West  Level FlightAware Approximate
06:58PM 45.4333 -98.4167 267° West  Level FlightAware Approximate
06:59PM 45.4491 -98.4218 267° West  Level Estimated
07:00PM 45.4491 -98.4218 267° West  Level Estimated